Time;durP1;ratioP1;P1;durP2;ratioP2;P2;SDS_P1;SDS_P2;PMS_P1;PMS_P2;Temp;Humidity;BMP_temperature;BMP_pressure;BME280_temperature;BME280_humidity;BME280_pressure;Samples;Min_cycle;Max_cycle;Signal;HPM_P1;HPM_P2
2022/05/10 00:01:53;;;;;;;12.20;8.07;;;;;;;;;;5018128;28;20063;-67
2022/05/10 00:04:23;;;;;;;14.75;7.97;;;;;;;;;;5019125;28;20084;-69
2022/05/10 00:06:52;;;;;;;12.90;7.93;;;;;;;;;;5024418;28;20147;-66
2022/05/10 00:09:22;;;;;;;12.10;7.78;;;;;;;;;;5018476;28;20133;-67
2022/05/10 00:11:50;;;;;;;11.60;7.45;;;;;;;;;;5023539;28;20065;-66
2022/05/10 00:14:18;;;;;;;12.27;7.70;;;;;;;;;;5026787;28;20168;-66
2022/05/10 00:16:51;;;;;;;13.20;7.68;;;;;;;;;;5014752;28;20052;-70
2022/05/10 00:19:20;;;;;;;11.43;7.60;;;;;;;;;;5020177;28;20046;-66
2022/05/10 00:21:50;;;;;;;14.32;7.95;;;;;;;;;;5027392;28;20583;-66
2022/05/10 00:24:18;;;;;;;11.18;7.57;;;;;;;;;;5025659;28;20544;-66
2022/05/10 00:26:48;;;;;;;11.55;7.75;;;;;;;;;;5024263;28;20560;-66
2022/05/10 00:29:16;;;;;;;14.23;8.15;;;;;;;;;;5018184;28;20070;-67
2022/05/10 00:31:44;;;;;;;12.20;8.13;;;;;;;;;;5025633;28;20141;-66
2022/05/10 00:34:16;;;;;;;13.85;8.55;;;;;;;;;;5023163;28;20103;-66
2022/05/10 00:36:45;;;;;;;13.40;7.72;;;;;;;;;;5026278;28;20073;-66
2022/05/10 00:39:15;;;;;;;11.13;7.82;;;;;;;;;;5014729;28;20054;-66
2022/05/10 00:41:51;;;;;;;12.90;8.35;;;;;;;;;;5024618;28;20080;-67
2022/05/10 00:44:21;;;;;;;13.45;7.80;;;;;;;;;;5018435;28;20785;-67
2022/05/10 00:46:56;;;;;;;12.93;7.68;;;;;;;;;;5027365;28;20136;-70
2022/05/10 00:49:25;;;;;;;;;;;;;;;;;;5032274;28;20493;-67
2022/05/10 00:51:56;;;;;;;12.85;7.15;;;;;;;;;;5027253;28;20376;-67
2022/05/10 00:54:30;;;;;;;14.90;8.32;;;;;;;;;;5024810;28;20125;-70
2022/05/10 00:57:07;;;;;;;15.98;9.10;;;;;;;;;;5026540;28;20095;-66
2022/05/10 00:59:43;;;;;;;13.98;8.52;;;;;;;;;;5026872;28;20501;-70
2022/05/10 01:02:16;;;;;;;13.25;8.13;;;;;;;;;;5025774;28;20513;-66
2022/05/10 01:04:47;;;;;;;14.30;8.48;;;;;;;;;;5022784;28;20046;-70
2022/05/10 01:07:16;;;;;;;17.33;8.60;;;;;;;;;;5029123;28;20132;-66
2022/05/10 01:09:48;;;;;;;16.65;9.02;;;;;;;;;;5025967;28;20140;-66
2022/05/10 01:12:20;;;;;;;15.35;8.82;;;;;;;;;;5028491;28;20559;-66
2022/05/10 01:14:51;;;;;;;14.48;8.88;;;;;;;;;;5016513;28;20132;-66
2022/05/10 01:17:19;;;;;;;14.35;8.68;;;;;;;;;;5014726;28;20136;-66
2022/05/10 01:19:47;;;;;;;12.82;8.32;;;;;;;;;;5026670;28;20141;-69
2022/05/10 01:22:22;;;;;;;16.25;8.68;;;;;;;;;;5021449;28;20145;-66
2022/05/10 01:24:50;;;;;;;;;;;;;;;;;;5028745;28;20104;-67
2022/05/10 01:27:26;;;;;;;14.80;8.52;;;;;;;;;;5022207;28;19925;-70
2022/05/10 01:29:58;;;;;;;13.23;8.70;;;;;;;;;;5024210;28;20366;-68
2022/05/10 01:35:20;;;;;;;15.15;8.77;;;;;;;;;;5027724;28;20048;-67
2022/05/10 01:37:51;;;;;;;12.80;8.60;;;;;;;;;;5025578;28;20124;-69
2022/05/10 01:40:24;;;;;;;15.57;8.75;;;;;;;;;;5024152;28;20369;-66
2022/05/10 01:42:55;;;;;;;15.18;9.32;;;;;;;;;;5024852;28;20084;-67
2022/05/10 01:45:28;;;;;;;15.15;9.05;;;;;;;;;;5030352;28;20055;-66
2022/05/10 01:47:58;;;;;;;14.27;9.10;;;;;;;;;;5027002;28;20105;-66
2022/05/10 01:50:29;;;;;;;19.02;9.35;;;;;;;;;;5029198;28;20072;-66
2022/05/10 01:53:04;;;;;;;12.55;7.90;;;;;;;;;;5028045;28;20115;-66
2022/05/10 01:55:34;;;;;;;16.73;8.65;;;;;;;;;;5012147;28;20124;-66
2022/05/10 01:58:05;;;;;;;13.57;8.75;;;;;;;;;;5023557;28;20061;-66
2022/05/10 02:00:37;;;;;;;12.98;8.45;;;;;;;;;;5030928;28;20081;-67
2022/05/10 02:03:11;;;;;;;16.50;8.90;;;;;;;;;;5026160;28;20136;-66
2022/05/10 02:05:43;;;;;;;12.18;8.10;;;;;;;;;;5024115;28;20042;-67
2022/05/10 02:08:15;;;;;;;14.73;8.95;;;;;;;;;;5024914;28;20132;-66
2022/05/10 02:10:45;;;;;;;13.77;8.55;;;;;;;;;;5031419;28;20425;-67
2022/05/10 02:13:16;;;;;;;14.25;8.57;;;;;;;;;;5030854;28;20057;-68
2022/05/10 02:15:50;;;;;;;13.77;8.27;;;;;;;;;;5029236;28;20107;-67
2022/05/10 02:18:19;;;;;;;;;;;;;;;;;;5031864;28;20100;-67
2022/05/10 02:20:49;;;;;;;13.82;8.02;;;;;;;;;;5021471;28;19924;-67
2022/05/10 02:23:22;;;;;;;14.32;7.72;;;;;;;;;;5028167;28;20129;-67
2022/05/10 02:25:52;;;;;;;14.93;8.77;;;;;;;;;;5019511;28;20074;-66
2022/05/10 02:28:23;;;;;;;13.75;8.25;;;;;;;;;;5014605;28;20038;-66
2022/05/10 02:30:56;;;;;;;14.05;7.57;;;;;;;;;;5031587;28;20144;-66
2022/05/10 02:33:24;;;;;;;12.63;8.07;;;;;;;;;;5020342;28;20571;-68
2022/05/10 02:35:54;;;;;;;14.30;8.70;;;;;;;;;;5035019;28;20492;-66
2022/05/10 02:38:23;;;;;;;16.00;8.50;;;;;;;;;;5022747;28;20060;-69
2022/05/10 02:40:52;;;;;;;14.70;8.95;;;;;;;;;;5020809;28;20444;-67
2022/05/10 02:43:21;;;;;;;16.70;9.52;;;;;;;;;;5019219;28;20124;-66
2022/05/10 02:45:50;;;;;;;13.80;8.93;;;;;;;;;;5030746;28;20140;-66
2022/05/10 02:48:24;;;;;;;12.25;8.05;;;;;;;;;;5023587;28;20042;-67
2022/05/10 02:50:52;;;;;;;14.52;8.73;;;;;;;;;;5026431;28;20123;-66
2022/05/10 02:53:21;;;;;;;13.88;8.73;;;;;;;;;;5029221;28;20083;-66
2022/05/10 02:55:51;;;;;;;15.05;8.45;;;;;;;;;;5025737;28;20132;-65
2022/05/10 02:58:30;;;;;;;11.43;7.47;;;;;;;;;;5023929;28;20045;-68
2022/05/10 03:01:02;;;;;;;14.02;8.77;;;;;;;;;;5024831;28;20060;-66
2022/05/10 03:03:32;;;;;;;14.75;8.30;;;;;;;;;;5018574;28;20077;-66
2022/05/10 03:06:00;;;;;;;13.27;8.68;;;;;;;;;;5027441;28;20588;-67
2022/05/10 03:08:29;;;;;;;18.65;10.10;;;;;;;;;;5026598;28;20065;-67
2022/05/10 03:10:58;;;;;;;15.02;8.73;;;;;;;;;;5023108;28;20155;-68
2022/05/10 03:13:26;;;;;;;14.75;8.55;;;;;;;;;;5022814;28;20042;-66
2022/05/10 03:15:54;;;;;;;16.25;8.63;;;;;;;;;;5023326;28;20540;-70
2022/05/10 03:18:23;;;;;;;14.27;8.48;;;;;;;;;;5028438;28;20049;-67
2022/05/10 03:20:52;;;;;;;11.30;7.97;;;;;;;;;;5029784;28;20042;-66
2022/05/10 03:23:20;;;;;;;12.93;7.63;;;;;;;;;;5030909;28;20513;-67
2022/05/10 03:25:49;;;;;;;14.10;7.93;;;;;;;;;;5024693;28;20140;-69
2022/05/10 03:28:17;;;;;;;14.68;8.40;;;;;;;;;;5020076;28;20080;-67
2022/05/10 03:30:46;;;;;;;11.27;7.25;;;;;;;;;;5027575;28;20065;-67
2022/05/10 03:33:14;;;;;;;13.75;8.40;;;;;;;;;;5031421;28;20049;-68
2022/05/10 03:35:42;;;;;;;12.75;8.32;;;;;;;;;;5019485;28;20083;-67
2022/05/10 03:38:12;;;;;;;11.07;7.85;;;;;;;;;;5018360;28;20450;-66
2022/05/10 03:40:41;;;;;;;14.02;7.78;;;;;;;;;;5023727;28;20038;-71
2022/05/10 03:43:10;;;;;;;13.10;8.25;;;;;;;;;;5014971;28;20044;-66
2022/05/10 03:45:38;;;;;;;12.13;7.65;;;;;;;;;;5023920;28;20096;-66
2022/05/10 03:48:07;;;;;;;12.27;7.55;;;;;;;;;;5025197;28;20048;-66
2022/05/10 03:50:36;;;;;;;14.25;7.70;;;;;;;;;;5021533;28;20512;-66
2022/05/10 03:53:04;;;;;;;11.95;6.93;;;;;;;;;;5025452;28;20057;-66
2022/05/10 03:55:34;;;;;;;12.63;7.43;;;;;;;;;;5026381;28;20049;-66
2022/05/10 03:58:04;;;;;;;9.95;6.80;;;;;;;;;;5025280;28;20132;-66
2022/05/10 04:00:32;;;;;;;11.82;6.97;;;;;;;;;;5024227;28;20136;-66
2022/05/10 04:03:01;;;;;;;14.85;8.15;;;;;;;;;;5012126;28;20059;-66
2022/05/10 04:05:31;;;;;;;13.77;7.60;;;;;;;;;;5016566;28;20505;-66
2022/05/10 04:08:00;;;;;;;11.38;7.30;;;;;;;;;;5012545;28;20132;-66
2022/05/10 04:10:28;;;;;;;11.15;7.10;;;;;;;;;;5014557;28;20505;-67
2022/05/10 04:12:58;;;;;;;10.18;7.00;;;;;;;;;;5022991;28;20073;-66
2022/05/10 04:15:26;;;;;;;14.82;7.88;;;;;;;;;;5027993;28;20564;-66
2022/05/10 04:17:54;;;;;;;11.82;7.45;;;;;;;;;;5028168;28;20041;-66
2022/05/10 04:20:23;;;;;;;16.40;7.47;;;;;;;;;;5025255;28;20058;-68
2022/05/10 04:22:51;;;;;;;12.77;7.68;;;;;;;;;;5026281;28;20489;-66
2022/05/10 04:25:23;;;;;;;11.35;7.05;;;;;;;;;;5027616;28;20482;-67
2022/05/10 04:27:52;;;;;;;11.98;7.05;;;;;;;;;;5026898;28;20053;-66
2022/05/10 04:30:22;;;;;;;12.10;7.32;;;;;;;;;;5029365;28;20041;-67
2022/05/10 04:32:50;;;;;;;11.38;6.93;;;;;;;;;;5024186;28;20132;-70
2022/05/10 04:35:18;;;;;;;10.75;7.30;;;;;;;;;;5027572;28;20164;-66
2022/05/10 04:37:46;;;;;;;12.85;6.93;;;;;;;;;;5025338;28;20502;-67
2022/05/10 04:43:01;;;;;;;10.73;6.60;;;;;;;;;;5028528;28;20125;-65
2022/05/10 04:45:30;;;;;;;12.35;7.15;;;;;;;;;;5019407;28;20073;-66
2022/05/10 04:47:59;;;;;;;10.70;6.80;;;;;;;;;;5032184;28;20045;-65
2022/05/10 04:50:27;;;;;;;11.73;6.65;;;;;;;;;;5032389;28;20573;-66
2022/05/10 04:52:55;;;;;;;14.23;6.60;;;;;;;;;;5031782;28;20132;-67
2022/05/10 04:55:24;;;;;;;10.02;6.18;;;;;;;;;;5020926;28;20069;-66
2022/05/10 04:57:52;;;;;;;10.35;6.63;;;;;;;;;;5027021;28;20132;-67
2022/05/10 05:00:21;;;;;;;10.68;7.03;;;;;;;;;;5025908;28;20160;-65
2022/05/10 05:02:50;;;;;;;12.50;7.18;;;;;;;;;;5018616;28;20165;-65
2022/05/10 05:05:19;;;;;;;11.00;6.78;;;;;;;;;;5022060;28;20041;-65
2022/05/10 05:07:47;;;;;;;12.85;7.55;;;;;;;;;;5014516;28;20391;-66
2022/05/10 05:10:16;;;;;;;11.85;7.10;;;;;;;;;;5020228;28;20046;-67
2022/05/10 05:12:45;;;;;;;10.07;6.57;;;;;;;;;;5028908;28;20041;-66
2022/05/10 05:15:14;;;;;;;11.93;7.18;;;;;;;;;;5028757;28;20370;-65
2022/05/10 05:17:50;;;;;;;11.52;6.85;;;;;;;;;;5024623;28;20053;-69
2022/05/10 05:20:19;;;;;;;10.30;6.75;;;;;;;;;;5020776;28;20552;-65
2022/05/10 05:22:47;;;;;;;11.55;6.97;;;;;;;;;;5020870;28;20049;-66
2022/05/10 05:25:15;;;;;;;11.27;6.90;;;;;;;;;;5022736;28;20045;-65
2022/05/10 05:27:44;;;;;;;10.50;6.53;;;;;;;;;;5016027;28;20046;-65
2022/05/10 05:30:16;;;;;;;10.52;6.60;;;;;;;;;;5029755;28;20049;-65
2022/05/10 05:32:45;;;;;;;8.85;6.00;;;;;;;;;;5028815;28;20619;-68
2022/05/10 05:35:14;;;;;;;13.88;7.30;;;;;;;;;;5023302;28;20049;-66
2022/05/10 05:37:43;;;;;;;11.68;6.88;;;;;;;;;;5024358;28;20077;-67
2022/05/10 05:40:12;;;;;;;14.48;6.85;;;;;;;;;;5021286;28;20133;-66
2022/05/10 05:42:46;;;;;;;9.88;6.45;;;;;;;;;;5028168;28;20323;-66
2022/05/10 05:45:15;;;;;;;10.35;6.47;;;;;;;;;;5029800;28;20568;-66
2022/05/10 05:47:44;;;;;;;10.82;5.95;;;;;;;;;;5022181;28;20049;-66
2022/05/10 05:50:14;;;;;;;10.00;5.78;;;;;;;;;;5020738;28;20125;-67
2022/05/10 05:52:43;;;;;;;9.70;6.18;;;;;;;;;;5033458;28;20081;-66
2022/05/10 05:55:12;;;;;;;10.90;6.10;;;;;;;;;;5033424;28;20045;-66
2022/05/10 05:57:40;;;;;;;12.23;5.78;;;;;;;;;;5032798;28;20067;-67
2022/05/10 06:00:10;;;;;;;8.30;5.40;;;;;;;;;;5032030;28;20060;-66
2022/05/10 06:02:39;;;;;;;8.68;5.10;;;;;;;;;;5031943;28;20055;-65
2022/05/10 06:05:08;;;;;;;8.23;4.93;;;;;;;;;;5032187;28;20049;-66
2022/05/10 06:07:38;;;;;;;10.25;5.30;;;;;;;;;;5022328;28;20447;-66
2022/05/10 06:10:09;;;;;;;9.88;4.10;;;;;;;;;;5026122;28;20053;-67
2022/05/10 06:12:37;;;;;;;8.85;5.18;;;;;;;;;;5030796;28;20053;-67
2022/05/10 06:15:08;;;;;;;7.22;4.60;;;;;;;;;;5030790;28;20460;-66
2022/05/10 06:17:37;;;;;;;9.57;4.47;;;;;;;;;;5030740;28;20087;-67
2022/05/10 06:20:08;;;;;;;10.35;4.90;;;;;;;;;;5032854;28;20516;-67
2022/05/10 06:22:37;;;;;;;9.55;5.07;;;;;;;;;;5033519;28;20157;-67
2022/05/10 06:25:08;;;;;;;8.63;4.97;;;;;;;;;;5026524;28;20057;-66
2022/05/10 06:27:37;;;;;;;14.18;5.20;;;;;;;;;;5032680;28;20049;-66
2022/05/10 06:30:06;;;;;;;6.88;4.57;;;;;;;;;;5031007;28;20045;-66
2022/05/10 06:32:34;;;;;;;9.52;4.40;;;;;;;;;;5025903;28;20060;-66
2022/05/10 06:35:02;;;;;;;8.18;4.65;;;;;;;;;;5012968;28;20132;-66
2022/05/10 06:40:19;;;;;;;11.88;5.32;;;;;;;;;;5020678;28;20081;-67
2022/05/10 06:42:47;;;;;;;12.30;6.10;;;;;;;;;;5033051;28;20406;-67
2022/05/10 06:45:17;;;;;;;11.75;5.75;;;;;;;;;;5028194;28;20555;-66
2022/05/10 06:47:48;;;;;;;9.73;6.35;;;;;;;;;;5033219;28;20292;-67
2022/05/10 06:50:19;;;;;;;8.63;5.32;;;;;;;;;;5030246;28;20057;-67
2022/05/10 06:52:47;;;;;;;10.43;6.30;;;;;;;;;;5032843;28;20049;-67
2022/05/10 06:55:16;;;;;;;14.20;7.15;;;;;;;;;;5033114;28;20278;-66
2022/05/10 06:57:46;;;;;;;11.65;6.88;;;;;;;;;;5025811;28;20516;-67
2022/05/10 07:00:16;;;;;;;12.63;6.60;;;;;;;;;;5020935;28;20103;-67
2022/05/10 07:02:45;;;;;;;12.45;6.70;;;;;;;;;;5021629;28;20053;-67
2022/05/10 07:05:14;;;;;;;13.70;6.95;;;;;;;;;;5021499;28;20453;-67
2022/05/10 07:07:43;;;;;;;10.60;6.63;;;;;;;;;;5027162;28;20080;-68
2022/05/10 07:10:12;;;;;;;10.23;5.53;;;;;;;;;;5024463;28;20148;-67
2022/05/10 07:12:41;;;;;;;10.18;5.88;;;;;;;;;;5019857;28;20073;-66
2022/05/10 07:15:13;;;;;;;10.50;6.13;;;;;;;;;;5019774;28;20120;-68
2022/05/10 07:17:42;;;;;;;10.30;6.15;;;;;;;;;;5022353;28;20145;-67
2022/05/10 07:20:12;;;;;;;8.60;5.93;;;;;;;;;;5020798;28;20041;-67
2022/05/10 07:22:40;;;;;;;9.65;5.85;;;;;;;;;;5025622;28;20049;-67
2022/05/10 07:25:09;;;;;;;9.65;6.22;;;;;;;;;;5022772;28;20991;-68
2022/05/10 07:27:39;;;;;;;12.98;6.45;;;;;;;;;;5019149;28;20100;-68
2022/05/10 07:30:08;;;;;;;12.07;6.13;;;;;;;;;;5027768;28;20448;-68
2022/05/10 07:32:38;;;;;;;8.98;6.00;;;;;;;;;;5021299;28;21607;-68
2022/05/10 07:35:08;;;;;;;11.38;6.43;;;;;;;;;;5018334;28;20104;-67
2022/05/10 07:37:38;;;;;;;8.02;4.57;;;;;;;;;;5020831;28;20053;-68
2022/05/10 07:40:07;;;;;;;10.93;5.97;;;;;;;;;;5021933;28;20054;-68
2022/05/10 07:42:36;;;;;;;8.55;4.90;;;;;;;;;;5018405;28;20455;-67
2022/05/10 07:45:05;;;;;;;10.05;5.50;;;;;;;;;;5015320;28;20501;-65
2022/05/10 07:47:34;;;;;;;7.80;4.75;;;;;;;;;;5019848;28;20057;-65
2022/05/10 07:50:05;;;;;;;9.75;4.93;;;;;;;;;;5017687;28;20052;-64
2022/05/10 07:52:33;;;;;;;8.43;4.88;;;;;;;;;;5024315;28;20049;-66
2022/05/10 07:55:01;;;;;;;6.40;4.45;;;;;;;;;;5019735;28;20042;-67
2022/05/10 07:57:30;;;;;;;7.28;4.80;;;;;;;;;;5023750;28;20049;-67
2022/05/10 07:59:59;;;;;;;8.02;4.30;;;;;;;;;;5023427;28;20104;-67
2022/05/10 08:02:28;;;;;;;6.90;4.55;;;;;;;;;;5032614;28;20523;-67
2022/05/10 08:04:56;;;;;;;8.13;4.80;;;;;;;;;;5034499;28;20069;-67
2022/05/10 08:07:26;;;;;;;11.60;5.25;;;;;;;;;;5033527;28;20049;-67
2022/05/10 08:09:55;;;;;;;6.97;4.43;;;;;;;;;;5028740;28;20050;-67
2022/05/10 08:12:23;;;;;;;8.48;3.95;;;;;;;;;;5030805;28;20080;-66
2022/05/10 08:14:51;;;;;;;7.45;4.38;;;;;;;;;;5024899;28;20115;-67
2022/05/10 08:17:20;;;;;;;7.43;4.38;;;;;;;;;;5026971;28;20095;-66
2022/05/10 08:19:50;;;;;;;7.88;4.50;;;;;;;;;;5028632;28;20057;-67
2022/05/10 08:22:19;;;;;;;7.18;4.63;;;;;;;;;;5019554;28;20053;-66
2022/05/10 08:24:54;;;;;;;7.83;5.17;;;;;;;;;;5029679;28;20462;-68
2022/05/10 08:27:22;;;;;;;6.70;4.68;;;;;;;;;;5024690;28;20429;-66
2022/05/10 08:29:51;;;;;;;8.63;4.50;;;;;;;;;;5023007;28;20377;-67
2022/05/10 08:32:19;;;;;;;7.25;4.40;;;;;;;;;;5027104;28;20046;-66
2022/05/10 08:34:48;;;;;;;6.38;4.38;;;;;;;;;;5032763;28;20413;-67
2022/05/10 08:37:16;;;;;;;7.70;4.90;;;;;;;;;;5027208;28;20049;-67
2022/05/10 08:39:45;;;;;;;7.80;4.53;;;;;;;;;;5023536;28;20084;-67
2022/05/10 08:42:22;;;;;;;7.47;4.43;;;;;;;;;;5019967;28;20054;-67
2022/05/10 08:44:54;;;;;;;6.03;4.13;;;;;;;;;;5016659;28;20136;-67
2022/05/10 08:47:22;;;;;;;9.07;5.28;;;;;;;;;;5024680;28;20068;-67
2022/05/10 08:49:52;;;;;;;7.15;4.38;;;;;;;;;;5020812;28;20393;-67
2022/05/10 08:52:23;;;;;;;7.97;4.18;;;;;;;;;;5023253;28;20053;-67
2022/05/10 08:54:51;;;;;;;7.20;4.32;;;;;;;;;;5025867;28;20341;-67
2022/05/10 08:57:22;;;;;;;5.40;4.18;;;;;;;;;;5021921;28;20077;-68
2022/05/10 09:00:00;;;;;;;7.55;3.70;;;;;;;;;;5025369;28;20283;-67
2022/05/10 09:02:33;;;;;;;8.63;4.20;;;;;;;;;;5026329;28;20046;-67
2022/05/10 09:05:06;;;;;;;5.95;3.85;;;;;;;;;;5028914;28;20829;-67
2022/05/10 09:07:39;;;;;;;8.07;4.20;;;;;;;;;;5027106;28;20057;-68
2022/05/10 09:10:09;;;;;;;6.50;3.60;;;;;;;;;;5023975;28;20756;-68
2022/05/10 09:12:49;;;;;;;5.53;3.85;;;;;;;;;;5030591;28;20061;-68
2022/05/10 09:15:18;;;;;;;6.50;4.13;;;;;;;;;;5020570;28;20077;-68
2022/05/10 09:17:46;;;;;;;7.82;3.80;;;;;;;;;;5025638;28;20138;-68
2022/05/10 09:20:15;;;;;;;6.10;3.50;;;;;;;;;;5026533;28;20050;-67
2022/05/10 09:23:09;;;;;;;6.75;3.65;;;;;;;;;;5033818;28;20057;-67
2022/05/10 09:25:38;;;;;;;7.78;4.38;;;;;;;;;;5026550;28;20466;-67
2022/05/10 09:28:13;;;;;;;4.88;3.38;;;;;;;;;;5020772;28;20081;-68
2022/05/10 09:34:45;;;;;;;6.67;3.80;;;;;;;;;;5027096;28;20049;-68
2022/05/10 09:36:24;;;;;;;5.97;3.58;;;;;;;;;;5023058;28;20049;-67
2022/05/10 09:38:56;;;;;;;4.85;3.78;;;;;;;;;;5024943;28;20136;-67
2022/05/10 09:41:27;;;;;;;5.03;3.80;;;;;;;;;;5040313;28;20370;-67
2022/05/10 09:43:57;;;;;;;6.63;3.83;;;;;;;;;;5019292;28;20540;-67
2022/05/10 09:46:29;;;;;;;7.07;3.85;;;;;;;;;;5020625;28;20108;-67
2022/05/10 09:48:58;;;;;;;11.27;4.45;;;;;;;;;;5021075;28;20095;-67
2022/05/10 09:51:31;;;;;;;7.38;4.07;;;;;;;;;;5031240;28;20128;-67
2022/05/10 09:54:00;;;;;;;6.13;3.80;;;;;;;;;;5029604;28;20099;-69
2022/05/10 09:56:31;;;;;;;5.47;3.63;;;;;;;;;;5033576;28;20061;-67
2022/05/10 09:59:02;;;;;;;5.90;3.40;;;;;;;;;;5028253;28;20049;-66
2022/05/10 10:01:39;;;;;;;5.78;4.22;;;;;;;;;;5028915;28;20489;-68
2022/05/10 10:04:18;;;;;;;6.95;3.90;;;;;;;;;;5028444;28;20099;-66
2022/05/10 10:06:47;;;;;;;5.63;3.75;;;;;;;;;;5019138;28;20061;-67
2022/05/10 10:09:30;;;;;;;5.20;3.85;;;;;;;;;;5027887;28;20144;-67
2022/05/10 10:12:00;;;;;;;9.65;3.22;;;;;;;;;;5025748;28;20077;-67
2022/05/10 10:14:39;;;;;;;4.47;3.45;;;;;;;;;;5015794;28;20107;-70
2022/05/10 10:17:09;;;;;;;7.15;3.78;;;;;;;;;;5031450;28;20117;-66
2022/05/10 10:19:40;;;;;;;4.80;3.70;;;;;;;;;;5027935;28;20060;-67
2022/05/10 10:22:12;;;;;;;6.68;3.63;;;;;;;;;;5027742;28;20048;-67
2022/05/10 10:24:45;;;;;;;4.85;3.55;;;;;;;;;;5027750;28;20081;-67
2022/05/10 10:27:16;;;;;;;4.43;3.30;;;;;;;;;;5030919;28;20124;-66
2022/05/10 10:29:48;;;;;;;5.63;3.67;;;;;;;;;;5030483;28;20095;-67
2022/05/10 10:32:20;;;;;;;6.22;3.38;;;;;;;;;;5023519;28;20129;-67
2022/05/10 10:34:52;;;;;;;6.70;4.03;;;;;;;;;;5032275;28;20053;-67
2022/05/10 10:37:24;;;;;;;4.88;3.38;;;;;;;;;;5029929;28;20045;-66
2022/05/10 10:39:56;;;;;;;5.80;3.65;;;;;;;;;;5022733;28;20128;-67
2022/05/10 10:42:28;;;;;;;7.78;4.00;;;;;;;;;;5028873;28;20500;-68
2022/05/10 10:45:00;;;;;;;5.47;3.58;;;;;;;;;;5031754;28;20128;-68
2022/05/10 10:47:35;;;;;;;5.40;4.03;;;;;;;;;;5029968;28;20505;-68
2022/05/10 10:50:11;;;;;;;4.50;3.42;;;;;;;;;;5031097;28;20041;-68
2022/05/10 10:52:39;;;;;;;6.95;3.90;;;;;;;;;;5028465;28;20072;-67
2022/05/10 10:55:09;;;;;;;8.93;3.95;;;;;;;;;;5024411;28;20137;-68
2022/05/10 10:57:47;;;;;;;5.30;3.15;;;;;;;;;;5044621;28;20080;-66
2022/05/10 11:00:18;;;;;;;5.15;3.47;;;;;;;;;;5032258;28;20092;-67
2022/05/10 11:03:09;;;;;;;9.38;4.20;;;;;;;;;;5019403;28;20309;-69
2022/05/10 11:05:55;;;;;;;11.52;5.90;;;;;;;;;;5013016;28;20049;-67
2022/05/10 11:08:29;;;;;;;5.97;3.80;;;;;;;;;;5018516;28;20041;-67
2022/05/10 11:11:01;;;;;;;7.32;4.03;;;;;;;;;;5030194;28;20056;-66
2022/05/10 11:13:36;;;;;;;5.05;3.85;;;;;;;;;;5018126;28;20552;-67
2022/05/10 11:16:20;;;;;;;5.95;4.15;;;;;;;;;;5011911;28;20057;-71
2022/05/10 11:18:57;;;;;;;5.18;3.42;;;;;;;;;;5025020;28;20046;-67
2022/05/10 11:21:30;;;;;;;6.28;3.97;;;;;;;;;;5016209;28;20115;-67
2022/05/10 11:24:04;;;;;;;6.60;3.60;;;;;;;;;;5025185;28;20551;-67
2022/05/10 11:26:41;;;;;;;5.30;3.25;;;;;;;;;;5023865;28;20084;-69
2022/05/10 11:29:19;;;;;;;5.75;3.78;;;;;;;;;;5010667;28;20050;-67
2022/05/10 11:31:52;;;;;;;6.43;3.72;;;;;;;;;;5021383;28;20496;-67
2022/05/10 11:34:37;;;;;;;5.13;3.65;;;;;;;;;;5014219;28;20043;-70
2022/05/10 11:37:07;;;;;;;5.20;3.40;;;;;;;;;;5024637;28;20409;-67
2022/05/10 11:39:47;;;;;;;4.43;3.30;;;;;;;;;;5044505;28;20048;-68
2022/05/10 11:42:25;;;;;;;4.63;3.58;;;;;;;;;;5048008;28;20547;-68
2022/05/10 11:45:14;;;;;;;6.53;3.60;;;;;;;;;;5019242;28;21520;-67
2022/05/10 11:47:53;;;;;;;5.25;3.03;;;;;;;;;;5019586;28;20045;-66
2022/05/10 11:50:27;;;;;;;4.00;3.35;;;;;;;;;;5022079;28;20037;-67
2022/05/10 11:53:11;;;;;;;4.72;3.35;;;;;;;;;;5017898;28;20085;-68
2022/05/10 11:55:48;;;;;;;4.35;3.22;;;;;;;;;;5023471;28;20163;-66
2022/05/10 11:58:17;;;;;;;5.28;3.40;;;;;;;;;;5028031;28;20338;-67
2022/05/10 12:00:51;;;;;;;4.28;3.22;;;;;;;;;;5023697;28;20139;-68
2022/05/10 12:03:38;;;;;;;5.93;3.28;;;;;;;;;;5020279;28;20132;-67
2022/05/10 12:06:36;;;;;;;7.15;3.80;;;;;;;;;;5017963;28;20505;-68
2022/05/10 12:09:07;;;;;;;4.10;3.63;;;;;;;;;;5030428;28;20444;-67
2022/05/10 12:11:38;;;;;;;4.93;3.72;;;;;;;;;;5025879;28;20049;-66
2022/05/10 12:22:52;;;;;;;5.28;3.10;;;;;;;;;;5014462;28;20684;-67
2022/05/10 12:25:39;;;;;;;4.10;3.40;;;;;;;;;;5023585;28;20045;-67
2022/05/10 12:28:09;;;;;;;5.40;3.10;;;;;;;;;;5017535;28;20049;-67
2022/05/10 12:30:38;;;;;;;5.32;3.35;;;;;;;;;;5018721;28;20065;-67
2022/05/10 12:33:25;;;;;;;4.13;3.25;;;;;;;;;;5016359;28;20332;-67
2022/05/10 12:36:16;;;;;;;4.57;3.58;;;;;;;;;;5020935;28;20049;-68
2022/05/10 12:38:49;;;;;;;7.53;4.22;;;;;;;;;;5019756;28;20049;-67
2022/05/10 12:41:39;;;;;;;6.18;4.35;;;;;;;;;;5023467;28;20049;-67
2022/05/10 12:44:28;;;;;;;5.72;3.50;;;;;;;;;;5025173;28;20504;-68
2022/05/10 12:47:10;;;;;;;4.57;3.35;;;;;;;;;;5020501;28;20057;-70
2022/05/10 12:49:50;;;;;;;4.53;3.30;;;;;;;;;;5022936;28;20045;-67
2022/05/10 12:52:21;;;;;;;5.63;4.28;;;;;;;;;;5024758;28;20092;-66
2022/05/10 12:54:52;;;;;;;5.95;4.35;;;;;;;;;;5025705;28;20073;-69
2022/05/10 12:57:26;;;;;;;4.07;3.08;;;;;;;;;;5030805;28;20045;-67
2022/05/10 12:59:57;;;;;;;5.67;3.73;;;;;;;;;;5028134;28;20091;-68
2022/05/10 13:02:29;;;;;;;7.50;3.90;;;;;;;;;;5027637;28;20049;-67
2022/05/10 13:05:01;;;;;;;4.30;3.65;;;;;;;;;;5030921;28;20049;-68
2022/05/10 13:07:44;;;;;;;3.28;2.95;;;;;;;;;;5026884;28;20707;-67
2022/05/10 13:10:14;;;;;;;4.53;2.97;;;;;;;;;;5031707;28;20508;-68
2022/05/10 13:12:44;;;;;;;4.50;3.42;;;;;;;;;;5029363;28;20050;-67
2022/05/10 13:15:14;;;;;;;3.72;3.10;;;;;;;;;;5029287;28;20516;-67
2022/05/10 13:17:47;;;;;;;3.03;2.50;;;;;;;;;;5031340;28;20084;-68
2022/05/10 13:20:17;;;;;;;5.35;3.47;;;;;;;;;;5029750;28;20180;-67
2022/05/10 13:22:50;;;;;;;5.32;3.00;;;;;;;;;;5030642;28;20562;-67
2022/05/10 13:25:26;;;;;;;4.40;2.90;;;;;;;;;;5023810;28;20050;-67
2022/05/10 13:28:07;;;;;;;5.32;3.03;;;;;;;;;;5026591;28;20053;-67
2022/05/10 13:30:35;;;;;;;5.22;2.83;;;;;;;;;;5029823;28;20057;-67
2022/05/10 13:33:06;;;;;;;4.15;2.97;;;;;;;;;;5030325;28;20073;-69
2022/05/10 13:35:36;;;;;;;5.05;3.20;;;;;;;;;;5028963;28;20060;-70
2022/05/10 13:38:06;;;;;;;4.68;3.60;;;;;;;;;;5029421;28;20567;-66
2022/05/10 13:40:38;;;;;;;5.75;3.83;;;;;;;;;;5029619;28;20046;-67
2022/05/10 13:43:09;;;;;;;6.13;3.50;;;;;;;;;;5025036;28;20053;-67
2022/05/10 13:45:37;;;;;;;5.05;2.88;;;;;;;;;;5025182;28;20045;-70
2022/05/10 13:48:09;;;;;;;4.72;2.88;;;;;;;;;;5029833;28;20493;-66
2022/05/10 13:50:38;;;;;;;4.70;3.05;;;;;;;;;;5024307;28;20053;-71
2022/05/10 13:53:07;;;;;;;3.38;2.92;;;;;;;;;;5020310;28;20123;-67
2022/05/10 13:55:38;;;;;;;4.20;3.17;;;;;;;;;;5021072;28;20076;-67
2022/05/10 13:58:08;;;;;;;11.07;4.20;;;;;;;;;;5024743;28;20045;-68
2022/05/10 14:00:38;;;;;;;5.63;2.60;;;;;;;;;;5025414;28;20052;-67
2022/05/10 14:03:18;;;;;;;7.00;2.97;;;;;;;;;;5023761;28;20068;-66
2022/05/10 14:05:47;;;;;;;4.00;2.30;;;;;;;;;;5021748;28;20052;-67
2022/05/10 14:08:17;;;;;;;3.80;2.95;;;;;;;;;;5022410;28;20059;-66
2022/05/10 14:10:58;;;;;;;3.13;2.83;;;;;;;;;;5026941;28;20113;-69
2022/05/10 14:13:26;;;;;;;4.43;2.80;;;;;;;;;;5020118;28;20413;-69
2022/05/10 14:15:59;;;;;;;3.65;2.63;;;;;;;;;;5022487;28;20133;-68
2022/05/10 14:18:32;;;;;;;3.50;2.80;;;;;;;;;;5027046;28;20504;-70
2022/05/10 14:21:02;;;;;;;4.05;2.70;;;;;;;;;;5017835;28;20148;-66
2022/05/10 14:23:32;;;;;;;5.13;2.70;;;;;;;;;;5012320;28;20130;-67
2022/05/10 14:26:02;;;;;;;5.82;3.00;;;;;;;;;;5027450;28;20053;-66
2022/05/10 14:28:33;;;;;;;5.57;2.67;;;;;;;;;;5022768;28;20061;-66
2022/05/10 14:31:15;;;;;;;3.58;2.47;;;;;;;;;;5025742;28;20037;-66
2022/05/10 14:33:46;;;;;;;4.28;2.83;;;;;;;;;;5025489;28;20059;-66
2022/05/10 14:36:24;;;;;;;3.50;2.63;;;;;;;;;;5029003;28;20076;-66
2022/05/10 14:38:53;;;;;;;3.20;2.58;;;;;;;;;;5030421;28;20057;-66
2022/05/10 14:41:28;;;;;;;3.70;2.53;;;;;;;;;;5025077;28;20095;-67
2022/05/10 14:43:57;;;;;;;4.63;2.75;;;;;;;;;;5017421;28;20084;-66
2022/05/10 14:46:27;;;;;;;3.70;2.80;;;;;;;;;;5020696;28;20056;-68
2022/05/10 14:48:58;;;;;;;3.53;2.60;;;;;;;;;;5021592;28;20045;-67
2022/05/10 14:51:40;;;;;;;3.47;2.38;;;;;;;;;;5031376;28;20053;-66
2022/05/10 14:54:10;;;;;;;3.00;2.58;;;;;;;;;;5024812;28;20456;-67
2022/05/10 14:56:42;;;;;;;3.08;2.75;;;;;;;;;;5026446;28;20050;-70
2022/05/10 14:59:12;;;;;;;3.03;2.42;;;;;;;;;;5024201;28;20041;-67
2022/05/10 15:01:41;;;;;;;3.83;2.17;;;;;;;;;;5024459;28;20057;-66
2022/05/10 15:04:13;;;;;;;3.63;2.47;;;;;;;;;;5019482;28;20489;-67
2022/05/10 15:06:43;;;;;;;3.50;2.65;;;;;;;;;;5020779;28;21028;-68
2022/05/10 15:09:19;;;;;;;4.20;2.65;;;;;;;;;;5027582;28;20049;-67
2022/05/10 15:14:34;;;;;;;3.00;2.30;;;;;;;;;;5027035;28;20045;-66
2022/05/10 15:17:04;;;;;;;3.63;2.67;;;;;;;;;;5029438;28;20041;-67
2022/05/10 15:19:34;;;;;;;3.53;2.47;;;;;;;;;;5027081;28;20061;-67
2022/05/10 15:22:03;;;;;;;2.65;2.33;;;;;;;;;;5027828;28;20042;-67
2022/05/10 15:24:31;;;;;;;3.17;2.20;;;;;;;;;;5030914;28;20080;-67
2022/05/10 15:26:59;;;;;;;3.88;2.60;;;;;;;;;;5028081;28;20096;-69